Time;durP1;ratioP1;P1;durP2;ratioP2;P2;SDS_P1;SDS_P2;PMS_P1;PMS_P2;Temp;Humidity;BMP_temperature;BMP_pressure;BME280_temperature;BME280_humidity;BME280_pressure;Samples;Min_cycle;Max_cycle;Signal;HPM_P1;HPM_P2
2022/05/21 00:00:11;;;;;;;6.55;5.65;;;;;;;;;;5283906;28;20025;-70
2022/05/21 00:02:43;;;;;;;7.22;5.97;;;;;;;;;;5283189;28;20710;-70
2022/05/21 00:05:15;;;;;;;6.28;5.55;;;;;;;;;;5282891;28;20074;-69
2022/05/21 00:07:46;;;;;;;7.00;4.65;;;;;;;;;;5282642;28;20043;-69
2022/05/21 00:10:18;;;;;;;6.15;4.63;;;;;;;;;;5283749;28;20021;-69
2022/05/21 00:12:49;;;;;;;7.70;4.68;;;;;;;;;;5284020;28;20393;-70
2022/05/21 00:15:22;;;;;;;5.63;4.65;;;;;;;;;;5282570;28;20021;-69
2022/05/21 00:17:54;;;;;;;6.85;4.28;;;;;;;;;;5283703;28;20082;-69
2022/05/21 00:23:20;;;;;;;9.35;4.55;;;;;;;;;;5282908;28;20049;-69
2022/05/21 00:26:11;;;;;;;5.75;4.28;;;;;;;;;;5283940;28;20043;-69
2022/05/21 00:28:43;;;;;;;7.22;4.05;;;;;;;;;;5282905;28;20031;-70
2022/05/21 00:31:15;;;;;;;6.30;3.75;;;;;;;;;;5283309;28;20095;-70
2022/05/21 00:33:46;;;;;;;7.15;4.07;;;;;;;;;;5283374;28;20036;-69
2022/05/21 00:36:18;;;;;;;6.30;3.20;;;;;;;;;;5282375;28;20142;-70
2022/05/21 00:38:49;;;;;;;4.80;3.30;;;;;;;;;;5283361;28;20024;-69
2022/05/21 00:41:20;;;;;;;8.57;2.85;;;;;;;;;;5282969;28;20059;-70
2022/05/21 00:43:55;;;;;;;7.30;3.22;;;;;;;;;;5282808;28;20259;-70
2022/05/21 00:46:29;;;;;;;4.82;3.10;;;;;;;;;;5282844;28;20414;-70
2022/05/21 00:49:00;;;;;;;5.10;2.53;;;;;;;;;;5283098;28;20067;-70
2022/05/21 00:51:40;;;;;;;7.57;2.47;;;;;;;;;;5281884;28;20048;-70
2022/05/21 00:54:12;;;;;;;4.97;2.08;;;;;;;;;;5283019;28;20274;-70
2022/05/21 00:56:48;;;;;;;4.70;2.10;;;;;;;;;;5282223;28;20012;-69
2022/05/21 01:02:09;;;;;;;6.25;1.73;;;;;;;;;;5283181;28;20028;-70
2022/05/21 01:04:43;;;;;;;5.85;1.60;;;;;;;;;;5282178;28;20024;-71
2022/05/21 01:07:15;;;;;;;5.90;1.48;;;;;;;;;;5282712;28;20024;-70
2022/05/21 01:09:50;;;;;;;8.07;2.20;;;;;;;;;;5282626;28;20016;-71
2022/05/21 01:12:23;;;;;;;3.42;1.20;;;;;;;;;;5281676;28;20029;-70
2022/05/21 01:14:55;;;;;;;4.53;1.65;;;;;;;;;;5282639;28;20017;-71
2022/05/21 01:17:27;;;;;;;6.18;1.40;;;;;;;;;;5281724;28;20103;-71
2022/05/21 01:20:04;;;;;;;6.60;1.15;;;;;;;;;;5282008;28;20190;-70
2022/05/21 01:22:46;;;;;;;4.07;1.10;;;;;;;;;;5281960;28;20067;-70
2022/05/21 01:25:19;;;;;;;8.43;2.20;;;;;;;;;;5281591;28;20107;-70
2022/05/21 01:27:51;;;;;;;3.92;1.92;;;;;;;;;;5282721;28;20027;-70
2022/05/21 01:30:24;;;;;;;5.90;1.45;;;;;;;;;;5281799;28;20013;-71
2022/05/21 01:32:55;;;;;;;5.93;1.33;;;;;;;;;;5281503;28;20496;-71
2022/05/21 01:35:26;;;;;;;4.72;1.05;;;;;;;;;;5281903;28;20055;-70
2022/05/21 01:37:57;;;;;;;6.18;1.38;;;;;;;;;;5282452;28;20028;-70
2022/05/21 01:40:29;;;;;;;7.20;1.48;;;;;;;;;;5281019;28;20267;-71
2022/05/21 01:45:52;;;;;;;5.00;1.27;;;;;;;;;;5281794;28;20446;-71
2022/05/21 01:48:25;;;;;;;7.93;1.40;;;;;;;;;;5281324;28;20124;-70
2022/05/21 01:50:56;;;;;;;8.38;1.52;;;;;;;;;;5282065;28;20086;-71
2022/05/21 01:53:27;;;;;;;5.57;1.70;;;;;;;;;;5280432;28;20032;-70
2022/05/21 01:55:59;;;;;;;4.03;1.38;;;;;;;;;;5282087;28;20418;-71
2022/05/21 01:58:30;;;;;;;5.35;1.38;;;;;;;;;;5281578;28;20020;-71
2022/05/21 02:01:03;;;;;;;5.13;1.37;;;;;;;;;;5280980;28;20099;-71
2022/05/21 02:03:34;;;;;;;6.53;1.75;;;;;;;;;;5281469;28;20267;-71
2022/05/21 02:06:05;;;;;;;9.93;1.80;;;;;;;;;;5281388;28;20016;-71
2022/05/21 02:08:36;;;;;;;8.38;1.83;;;;;;;;;;5280806;28;20013;-70
2022/05/21 02:11:07;;;;;;;7.90;1.73;;;;;;;;;;5281713;28;20078;-70
2022/05/21 02:13:39;;;;;;;11.00;1.73;;;;;;;;;;5281484;28;20173;-69
2022/05/21 02:16:10;;;;;;;6.57;1.60;;;;;;;;;;5280611;28;20028;-70
2022/05/21 02:18:41;;;;;;;5.57;1.17;;;;;;;;;;5281209;28;20350;-70
2022/05/21 02:21:12;;;;;;;7.47;1.30;;;;;;;;;;5280529;28;20515;-69
2022/05/21 02:23:44;;;;;;;8.27;1.67;;;;;;;;;;5281350;28;20262;-69
2022/05/21 02:26:17;;;;;;;6.25;1.13;;;;;;;;;;5281449;28;20387;-70
2022/05/21 02:28:48;;;;;;;4.90;1.65;;;;;;;;;;5279593;28;20028;-69
2022/05/21 02:31:19;;;;;;;6.90;1.48;;;;;;;;;;5280747;28;20582;-70
2022/05/21 02:33:50;;;;;;;9.05;1.13;;;;;;;;;;5281634;28;20025;-71
2022/05/21 02:39:25;;;;;;;6.18;1.45;;;;;;;;;;5280034;28;20043;-70
2022/05/21 02:39:31;;;;;;;10.38;2.20;;;;;;;;;;5281023;28;20362;-70
2022/05/21 02:42:02;;;;;;;7.28;1.17;;;;;;;;;;5281383;28;20506;-69
2022/05/21 02:44:34;;;;;;;5.05;1.25;;;;;;;;;;5280355;28;20059;-69
2022/05/21 02:47:05;;;;;;;9.20;1.33;;;;;;;;;;5281081;28;20020;-69
2022/05/21 02:49:36;;;;;;;7.78;1.90;;;;;;;;;;5280163;28;20266;-69
2022/05/21 02:52:07;;;;;;;8.57;1.85;;;;;;;;;;5280772;28;20029;-70
2022/05/21 02:54:38;;;;;;;8.50;1.60;;;;;;;;;;5280761;28;20282;-69
2022/05/21 02:57:10;;;;;;;5.63;1.58;;;;;;;;;;5280289;28;20812;-69
2022/05/21 02:59:41;;;;;;;8.57;1.85;;;;;;;;;;5280744;28;20059;-69
2022/05/21 03:02:13;;;;;;;7.07;1.88;;;;;;;;;;5280878;28;20446;-69
2022/05/21 03:04:44;;;;;;;8.00;1.80;;;;;;;;;;5279883;28;20021;-69
2022/05/21 03:07:15;;;;;;;7.95;1.95;;;;;;;;;;5280922;28;20820;-70
2022/05/21 03:12:36;;;;;;;9.57;2.03;;;;;;;;;;5279984;28;20290;-70
2022/05/21 03:15:07;;;;;;;9.20;1.95;;;;;;;;;;5280671;28;20476;-70
2022/05/21 03:17:39;;;;;;;7.57;2.00;;;;;;;;;;5279809;28;20278;-70
2022/05/21 03:20:13;;;;;;;7.05;1.55;;;;;;;;;;5280462;28;20031;-69
2022/05/21 03:22:45;;;;;;;6.75;2.35;;;;;;;;;;5280340;28;20057;-69
2022/05/21 03:25:16;;;;;;;11.82;1.90;;;;;;;;;;5279802;28;20506;-70
2022/05/21 03:27:47;;;;;;;7.40;2.45;;;;;;;;;;5280524;28;20031;-70
2022/05/21 03:30:20;;;;;;;9.70;2.67;;;;;;;;;;5280194;28;20028;-70
2022/05/21 03:32:51;;;;;;;7.95;2.15;;;;;;;;;;5279803;28;20051;-69
2022/05/21 03:35:23;;;;;;;5.15;1.95;;;;;;;;;;5279958;28;20351;-69
2022/05/21 03:37:55;;;;;;;14.07;2.42;;;;;;;;;;5280606;28;20765;-69
2022/05/21 03:40:28;;;;;;;10.73;2.25;;;;;;;;;;5280620;28;20024;-69
2022/05/21 03:42:59;;;;;;;8.25;2.63;;;;;;;;;;5284501;28;20134;-70
2022/05/21 03:45:31;;;;;;;8.88;2.53;;;;;;;;;;5282972;28;20095;-70
2022/05/21 03:48:05;;;;;;;11.45;2.80;;;;;;;;;;5283938;28;20020;-70
2022/05/21 03:50:36;;;;;;;8.88;2.20;;;;;;;;;;5283970;28;20021;-69
2022/05/21 03:53:09;;;;;;;8.27;2.00;;;;;;;;;;5283113;28;20382;-70
2022/05/21 03:55:40;;;;;;;9.93;2.55;;;;;;;;;;5284088;28;20028;-70
2022/05/21 03:58:13;;;;;;;8.57;2.58;;;;;;;;;;5284091;28;20050;-70
2022/05/21 04:00:45;;;;;;;10.90;1.92;;;;;;;;;;5283043;28;20387;-69
2022/05/21 04:03:16;;;;;;;13.07;2.60;;;;;;;;;;5283730;28;20017;-70
2022/05/21 04:05:47;;;;;;;6.43;1.95;;;;;;;;;;5283880;28;20479;-71
2022/05/21 04:08:18;;;;;;;13.88;2.42;;;;;;;;;;5282680;28;20012;-70
2022/05/21 04:10:50;;;;;;;12.48;2.15;;;;;;;;;;5284072;28;20039;-70
2022/05/21 04:13:22;;;;;;;11.02;2.65;;;;;;;;;;5283152;28;20035;-69
2022/05/21 04:15:53;;;;;;;7.88;2.05;;;;;;;;;;5283291;28;20037;-70
2022/05/21 04:18:24;;;;;;;10.40;1.93;;;;;;;;;;5283347;28;20020;-71
2022/05/21 04:20:55;;;;;;;10.55;2.40;;;;;;;;;;5282714;28;20350;-70
2022/05/21 04:23:26;;;;;;;10.25;2.22;;;;;;;;;;5283118;28;20283;-70
2022/05/21 04:25:57;;;;;;;11.70;2.67;;;;;;;;;;5283742;28;20096;-70
2022/05/21 04:28:29;;;;;;;10.45;2.80;;;;;;;;;;5282590;28;20486;-70
2022/05/21 04:31:00;;;;;;;8.63;2.65;;;;;;;;;;5283586;28;20258;-70
2022/05/21 04:33:31;;;;;;;9.15;3.33;;;;;;;;;;5282981;28;20119;-70
2022/05/21 04:36:18;;;;;;;10.90;3.75;;;;;;;;;;5282385;28;20329;-70
2022/05/21 04:38:51;;;;;;;9.20;3.03;;;;;;;;;;5283602;28;20345;-70
2022/05/21 04:41:22;;;;;;;10.35;3.30;;;;;;;;;;5283043;28;20097;-71
2022/05/21 04:43:54;;;;;;;10.88;3.20;;;;;;;;;;5282648;28;20052;-70
2022/05/21 04:46:26;;;;;;;13.05;4.15;;;;;;;;;;5282731;28;20125;-70
2022/05/21 04:48:57;;;;;;;10.25;3.70;;;;;;;;;;5282473;28;20021;-70
2022/05/21 04:51:28;;;;;;;10.30;3.72;;;;;;;;;;5281791;28;20021;-70
2022/05/21 04:53:59;;;;;;;9.80;4.28;;;;;;;;;;5282956;28;20386;-70
2022/05/21 04:56:31;;;;;;;9.35;3.67;;;;;;;;;;5281849;28;20270;-70
2022/05/21 04:59:03;;;;;;;12.18;4.22;;;;;;;;;;5282846;28;20342;-70
2022/05/21 05:01:34;;;;;;;16.98;5.15;;;;;;;;;;5282844;28;20046;-70
2022/05/21 05:04:06;;;;;;;16.95;4.68;;;;;;;;;;5281975;28;20020;-70
2022/05/21 05:06:38;;;;;;;11.43;4.65;;;;;;;;;;5282794;28;20024;-70
2022/05/21 05:09:09;;;;;;;14.35;6.13;;;;;;;;;;5282631;28;20078;-70
2022/05/21 05:11:41;;;;;;;16.88;6.20;;;;;;;;;;5281603;28;20037;-70
2022/05/21 05:14:12;;;;;;;13.90;6.78;;;;;;;;;;5282774;28;20024;-69
2022/05/21 05:16:43;;;;;;;11.45;5.80;;;;;;;;;;5282565;28;20024;-70
2022/05/21 05:19:15;;;;;;;13.88;5.57;;;;;;;;;;5281516;28;20279;-70
2022/05/21 05:21:46;;;;;;;15.60;6.80;;;;;;;;;;5282056;28;20044;-70
2022/05/21 05:24:17;;;;;;;10.25;5.60;;;;;;;;;;5281365;28;20286;-70
2022/05/21 05:26:48;;;;;;;18.98;6.38;;;;;;;;;;5282479;28;20316;-70
2022/05/21 05:29:19;;;;;;;18.40;6.32;;;;;;;;;;5281878;28;20271;-70
2022/05/21 05:31:50;;;;;;;14.45;7.18;;;;;;;;;;5281399;28;20464;-70
2022/05/21 05:34:22;;;;;;;16.50;6.57;;;;;;;;;;5281645;28;20745;-70
2022/05/21 05:36:53;;;;;;;14.63;6.88;;;;;;;;;;5282349;28;20063;-70
2022/05/21 05:39:24;;;;;;;15.77;7.63;;;;;;;;;;5281118;28;20579;-70
2022/05/21 05:41:55;;;;;;;15.65;6.40;;;;;;;;;;5282442;28;20020;-69
2022/05/21 05:44:26;;;;;;;15.18;7.18;;;;;;;;;;5281515;28;20108;-70
2022/05/21 05:46:58;;;;;;;15.60;6.47;;;;;;;;;;5281251;28;20054;-70
2022/05/21 05:49:29;;;;;;;14.88;7.28;;;;;;;;;;5281643;28;20281;-70
2022/05/21 05:52:00;;;;;;;16.15;7.63;;;;;;;;;;5281141;28;20059;-71
2022/05/21 05:54:34;;;;;;;18.42;7.70;;;;;;;;;;5281758;28;20267;-70
2022/05/21 05:57:10;;;;;;;17.17;6.95;;;;;;;;;;5281522;28;20016;-70
2022/05/21 05:59:50;;;;;;;22.65;9.00;;;;;;;;;;5281052;28;20044;-70
2022/05/21 06:05:35;;;;;;;17.27;8.52;;;;;;;;;;5258145;28;20047;-70
2022/05/21 06:08:07;;;;;;;18.33;9.10;;;;;;;;;;5257447;28;20025;-71
2022/05/21 06:10:40;;;;;;;22.45;9.73;;;;;;;;;;5271244;28;20278;-69
2022/05/21 06:13:12;;;;;;;22.27;10.07;;;;;;;;;;5280610;28;20036;-70
2022/05/21 06:15:43;;;;;;;19.58;8.90;;;;;;;;;;5281374;28;20021;-70
2022/05/21 06:18:16;;;;;;;22.52;8.50;;;;;;;;;;5281292;28;20493;-70
2022/05/21 06:20:49;;;;;;;20.40;9.07;;;;;;;;;;5280962;28;20056;-70
2022/05/21 06:23:20;;;;;;;19.13;8.70;;;;;;;;;;5280688;28;20052;-71
2022/05/21 06:25:51;;;;;;;18.52;8.15;;;;;;;;;;5281334;28;20021;-70
2022/05/21 06:28:22;;;;;;;23.77;8.98;;;;;;;;;;5280349;28;20391;-70
2022/05/21 06:30:54;;;;;;;20.10;8.43;;;;;;;;;;5281561;28;20419;-70
2022/05/21 06:33:26;;;;;;;24.38;10.00;;;;;;;;;;5281025;28;20343;-70
2022/05/21 06:36:24;;;;;;;21.25;9.82;;;;;;;;;;5280786;28;20387;-70
2022/05/21 06:38:56;;;;;;;24.65;9.73;;;;;;;;;;5279961;28;20064;-70
2022/05/21 06:41:29;;;;;;;20.00;8.30;;;;;;;;;;5280350;28;20089;-71
2022/05/21 06:44:01;;;;;;;21.17;9.82;;;;;;;;;;5281490;28;20379;-71
2022/05/21 06:46:32;;;;;;;17.33;9.13;;;;;;;;;;5281111;28;20028;-71
2022/05/21 06:49:03;;;;;;;21.35;9.02;;;;;;;;;;5280429;28;20051;-71
2022/05/21 06:51:34;;;;;;;23.60;9.25;;;;;;;;;;5281005;28;20273;-70
2022/05/21 06:54:06;;;;;;;19.05;9.07;;;;;;;;;;5281181;28;20418;-70
2022/05/21 06:56:39;;;;;;;17.23;8.65;;;;;;;;;;5280530;28;20745;-71
2022/05/21 06:59:10;;;;;;;18.15;9.05;;;;;;;;;;5280918;28;20028;-70
2022/05/21 07:01:42;;;;;;;19.77;9.48;;;;;;;;;;5280890;28;20375;-69
2022/05/21 07:04:16;;;;;;;26.35;9.95;;;;;;;;;;5280029;28;20302;-70
2022/05/21 07:09:37;;;;;;;19.48;9.07;;;;;;;;;;5279882;28;20028;-71
2022/05/21 07:12:08;;;;;;;22.48;10.80;;;;;;;;;;5280717;28;20360;-69
2022/05/21 07:14:39;;;;;;;19.63;10.20;;;;;;;;;;5280862;28;20025;-70
2022/05/21 07:17:10;;;;;;;21.65;10.60;;;;;;;;;;5283979;28;20035;-70
2022/05/21 07:19:41;;;;;;;18.92;9.48;;;;;;;;;;5284695;28;20266;-69
2022/05/21 07:22:13;;;;;;;20.95;9.10;;;;;;;;;;5284072;28;20293;-69
2022/05/21 07:24:44;;;;;;;24.40;10.23;;;;;;;;;;5283654;28;20460;-69
2022/05/21 07:27:16;;;;;;;20.98;9.73;;;;;;;;;;5284672;28;20025;-70
2022/05/21 07:29:47;;;;;;;25.63;10.02;;;;;;;;;;5284513;28;20052;-69
2022/05/21 07:32:20;;;;;;;19.40;9.23;;;;;;;;;;5283277;28;20484;-70
2022/05/21 07:34:57;;;;;;;23.92;9.15;;;;;;;;;;5284918;28;20038;-70
2022/05/21 07:37:29;;;;;;;16.02;8.40;;;;;;;;;;5283526;28;20108;-70
2022/05/21 07:40:01;;;;;;;21.17;10.02;;;;;;;;;;5284441;28;20491;-69
2022/05/21 07:42:32;;;;;;;22.55;8.80;;;;;;;;;;5284372;28;20028;-69
2022/05/21 07:45:05;;;;;;;22.30;8.90;;;;;;;;;;5283432;28;20021;-70
2022/05/21 07:47:36;;;;;;;24.02;9.25;;;;;;;;;;5283904;28;20032;-70
2022/05/21 07:50:07;;;;;;;21.15;9.05;;;;;;;;;;5283696;28;20017;-70
2022/05/21 07:52:39;;;;;;;23.10;9.57;;;;;;;;;;5282934;28;20297;-70
2022/05/21 07:55:11;;;;;;;18.23;8.75;;;;;;;;;;5283988;28;20474;-70
2022/05/21 07:57:42;;;;;;;17.02;8.65;;;;;;;;;;5283710;28;20021;-69
2022/05/21 08:00:17;;;;;;;18.05;9.00;;;;;;;;;;5282746;28;20081;-68
2022/05/21 08:02:49;;;;;;;16.60;6.53;;;;;;;;;;5283872;28;20074;-69
2022/05/21 08:05:21;;;;;;;18.75;6.63;;;;;;;;;;5282963;28;20029;-70
2022/05/21 08:07:52;;;;;;;16.27;7.32;;;;;;;;;;5282574;28;20360;-70
2022/05/21 08:10:24;;;;;;;14.23;6.00;;;;;;;;;;5282905;28;20074;-70
2022/05/21 08:12:55;;;;;;;17.35;5.97;;;;;;;;;;5282474;28;20069;-70
2022/05/21 08:15:26;;;;;;;15.50;6.50;;;;;;;;;;5282893;28;20017;-70
2022/05/21 08:17:59;;;;;;;13.52;5.47;;;;;;;;;;5283729;28;20882;-70
2022/05/21 08:20:31;;;;;;;21.65;7.50;;;;;;;;;;5282053;28;20375;-70
2022/05/21 08:28:42;;;;;;;17.27;6.30;;;;;;;;;;5281760;28;20068;-70
2022/05/21 08:31:13;;;;;;;17.42;6.28;;;;;;;;;;5282847;28;20036;-70
2022/05/21 08:33:44;;;;;;;15.18;8.05;;;;;;;;;;5282174;28;20119;-70
2022/05/21 08:36:16;;;;;;;15.02;6.55;;;;;;;;;;5282346;28;20016;-70
2022/05/21 08:38:47;;;;;;;22.10;6.80;;;;;;;;;;5282601;28;20267;-71
2022/05/21 08:41:23;;;;;;;14.05;6.25;;;;;;;;;;5281886;28;20342;-70
2022/05/21 08:44:03;;;;;;;20.58;6.50;;;;;;;;;;5283338;28;20009;-70
2022/05/21 08:46:36;;;;;;;14.40;7.28;;;;;;;;;;5283319;28;20043;-69
2022/05/21 08:49:13;;;;;;;13.60;6.45;;;;;;;;;;5282318;28;20032;-70
2022/05/21 08:51:49;;;;;;;13.00;5.75;;;;;;;;;;5282706;28;20020;-71
2022/05/21 08:54:25;;;;;;;15.60;6.50;;;;;;;;;;5282707;28;20476;-71
2022/05/21 08:56:56;;;;;;;16.95;5.97;;;;;;;;;;5282420;28;20177;-70
2022/05/21 08:59:32;;;;;;;13.98;6.03;;;;;;;;;;5282291;28;20043;-69
2022/05/21 09:02:04;;;;;;;14.68;5.85;;;;;;;;;;5281796;28;20063;-70
2022/05/21 09:04:36;;;;;;;18.85;5.57;;;;;;;;;;5282589;28;20464;-70
2022/05/21 09:07:13;;;;;;;14.10;4.47;;;;;;;;;;5282336;28;20021;-70
2022/05/21 09:09:52;;;;;;;10.90;3.97;;;;;;;;;;5281807;28;20101;-70
2022/05/21 09:12:28;;;;;;;10.98;4.30;;;;;;;;;;5282168;28;20027;-70
2022/05/21 09:15:01;;;;;;;17.10;5.55;;;;;;;;;;5282642;28;20012;-70
2022/05/21 09:17:40;;;;;;;16.05;4.15;;;;;;;;;;5281417;28;20456;-69
2022/05/21 09:20:11;;;;;;;;;;;;;;;;;;5282487;28;20074;-70
2022/05/21 09:22:53;;;;;;;10.70;2.60;;;;;;;;;;5282191;28;19916;-71
2022/05/21 09:25:26;;;;;;;13.60;3.70;;;;;;;;;;5280924;28;20012;-74
2022/05/21 09:28:02;;;;;;;11.10;3.42;;;;;;;;;;5282494;28;20028;-75
2022/05/21 09:30:35;;;;;;;10.52;3.00;;;;;;;;;;5281779;28;20020;-77
2022/05/21 09:33:24;;;;;;;11.45;3.38;;;;;;;;;;5282111;28;20056;-73
2022/05/21 09:35:56;;;;;;;7.75;2.50;;;;;;;;;;5281926;28;20052;-73
2022/05/21 09:38:32;;;;;;;11.13;2.78;;;;;;;;;;5279965;28;20020;-72
2022/05/21 09:41:11;;;;;;;10.50;2.45;;;;;;;;;;5281176;28;20029;-73
2022/05/21 09:46:44;;;;;;;9.85;2.83;;;;;;;;;;5281678;28;20471;-72
2022/05/21 09:49:23;;;;;;;10.82;2.45;;;;;;;;;;5281801;28;20092;-71
2022/05/21 09:51:57;;;;;;;13.68;3.17;;;;;;;;;;5281350;28;20075;-72
2022/05/21 09:54:49;;;;;;;13.63;2.35;;;;;;;;;;5281231;28;20028;-71
2022/05/21 09:57:25;;;;;;;9.75;2.45;;;;;;;;;;5280886;28;20693;-71
2022/05/21 10:00:00;;;;;;;9.60;1.90;;;;;;;;;;5280956;28;20487;-72
2022/05/21 10:02:39;;;;;;;12.27;2.72;;;;;;;;;;5281179;28;20028;-72
2022/05/21 10:05:15;;;;;;;9.55;2.35;;;;;;;;;;5280985;28;20032;-73
2022/05/21 10:10:59;;;;;;;12.73;2.97;;;;;;;;;;5281540;28;20036;-73
2022/05/21 10:13:30;;;;;;;14.05;3.55;;;;;;;;;;5279950;28;20036;-74
2022/05/21 10:16:22;;;;;;;9.50;3.20;;;;;;;;;;5281288;28;20118;-73
2022/05/21 10:18:53;;;;;;;10.00;3.58;;;;;;;;;;5277222;28;20278;-73
2022/05/21 10:21:35;;;;;;;11.00;3.47;;;;;;;;;;5279840;28;20040;-73
2022/05/21 10:24:09;;;;;;;10.85;4.68;;;;;;;;;;5280962;28;20017;-73
2022/05/21 10:26:47;;;;;;;15.57;5.10;;;;;;;;;;5280506;28;20055;-73
2022/05/21 10:29:30;;;;;;;12.23;6.13;;;;;;;;;;5280918;28;20027;-73
2022/05/21 10:32:23;;;;;;;13.02;5.88;;;;;;;;;;5281047;28;20032;-72
2022/05/21 10:34:54;;;;;;;17.05;5.80;;;;;;;;;;5280376;28;20121;-72
2022/05/21 10:37:28;;;;;;;9.27;4.93;;;;;;;;;;5280726;28;20103;-73
2022/05/21 10:40:09;;;;;;;11.48;4.15;;;;;;;;;;5281125;28;20020;-73
2022/05/21 10:42:50;;;;;;;11.30;2.72;;;;;;;;;;5280074;28;20031;-73
2022/05/21 10:45:29;;;;;;;9.38;2.13;;;;;;;;;;5280500;28;20099;-73
2022/05/21 10:48:09;;;;;;;6.78;2.17;;;;;;;;;;5280304;28;20102;-71
2022/05/21 10:50:49;;;;;;;14.27;3.33;;;;;;;;;;5279930;28;20124;-71
2022/05/21 10:53:39;;;;;;;12.70;3.08;;;;;;;;;;5280175;28;20074;-71
2022/05/21 10:56:24;;;;;;;9.13;2.10;;;;;;;;;;5280009;28;20169;-72
2022/05/21 10:59:01;;;;;;;10.80;2.28;;;;;;;;;;5280853;28;20024;-69
2022/05/21 11:01:44;;;;;;;8.02;1.67;;;;;;;;;;5279641;28;20107;-70
2022/05/21 11:04:26;;;;;;;7.47;2.35;;;;;;;;;;5278906;28;20062;-70
2022/05/21 11:07:10;;;;;;;8.90;1.75;;;;;;;;;;5280899;28;20480;-70
2022/05/21 11:09:50;;;;;;;7.95;1.67;;;;;;;;;;5279784;28;20106;-70
2022/05/21 11:12:25;;;;;;;5.32;1.10;;;;;;;;;;5280202;28;20542;-70
2022/05/21 11:15:03;;;;;;;9.40;1.58;;;;;;;;;;5281072;28;20020;-70
2022/05/21 11:17:52;;;;;;;7.07;1.63;;;;;;;;;;5279466;28;20341;-70
2022/05/21 11:20:25;;;;;;;7.30;1.48;;;;;;;;;;5279817;28;20013;-70
2022/05/21 11:22:56;;;;;;;8.98;2.13;;;;;;;;;;5279740;28;20134;-70
2022/05/21 11:25:39;;;;;;;7.97;1.83;;;;;;;;;;5280483;28;20052;-70
2022/05/21 11:28:18;;;;;;;7.43;1.02;;;;;;;;;;5280551;28;20275;-70
2022/05/21 11:30:56;;;;;;;9.23;2.00;;;;;;;;;;5280129;28;20021;-70
2022/05/21 11:39:12;;;;;;;15.25;1.40;;;;;;;;;;5280311;28;20115;-71
2022/05/21 11:41:52;;;;;;;9.00;1.52;;;;;;;;;;5280597;28;20016;-70
2022/05/21 11:47:33;;;;;;;6.50;1.20;;;;;;;;;;5280325;28;20480;-71
2022/05/21 11:50:11;;;;;;;5.88;1.23;;;;;;;;;;5280809;28;20017;-70
2022/05/21 11:52:49;;;;;;;11.88;1.65;;;;;;;;;;5279624;28;20118;-70
2022/05/21 11:55:23;;;;;;;7.72;1.67;;;;;;;;;;5280047;28;20056;-70
2022/05/21 11:57:58;;;;;;;9.02;1.02;;;;;;;;;;5279708;28;20463;-70
2022/05/21 12:00:30;;;;;;;8.20;1.50;;;;;;;;;;5280111;28;20447;-70
2022/05/21 12:03:04;;;;;;;8.02;1.48;;;;;;;;;;5283657;28;20103;-70
2022/05/21 12:05:38;;;;;;;6.22;1.17;;;;;;;;;;5282939;28;20020;-70
2022/05/21 12:08:17;;;;;;;7.93;1.58;;;;;;;;;;5283861;28;20016;-70
2022/05/21 12:11:08;;;;;;;10.45;1.45;;;;;;;;;;5283791;28;20071;-70
2022/05/21 12:14:09;;;;;;;8.90;1.20;;;;;;;;;;5282326;28;20040;-70
2022/05/21 12:16:42;;;;;;;6.38;1.30;;;;;;;;;;5278497;28;20036;-70
2022/05/21 12:19:33;;;;;;;6.03;1.10;;;;;;;;;;5283108;28;20020;-70
2022/05/21 12:22:04;;;;;;;6.35;1.33;;;;;;;;;;5283014;28;20399;-70
2022/05/21 12:24:37;;;;;;;7.57;1.00;;;;;;;;;;5283370;28;20021;-70
2022/05/21 12:27:14;;;;;;;8.70;1.25;;;;;;;;;;5282692;28;20472;-71
2022/05/21 12:29:45;;;;;;;7.65;1.10;;;;;;;;;;5283367;28;20036;-71
2022/05/21 12:32:23;;;;;;;3.70;0.80;;;;;;;;;;5283306;28;20032;-71
2022/05/21 12:35:13;;;;;;;6.10;0.90;;;;;;;;;;5282951;28;20028;-68
2022/05/21 12:37:47;;;;;;;4.90;0.70;;;;;;;;;;5283388;28;20036;-69
2022/05/21 12:40:29;;;;;;;7.50;0.93;;;;;;;;;;5282564;28;20028;-68
2022/05/21 12:43:11;;;;;;;7.63;1.20;;;;;;;;;;5283152;28;20078;-68
2022/05/21 12:45:48;;;;;;;7.65;0.70;;;;;;;;;;5283122;28;20090;-69
2022/05/21 12:48:23;;;;;;;5.22;0.73;;;;;;;;;;5282258;28;20013;-72
2022/05/21 12:50:56;;;;;;;7.40;0.98;;;;;;;;;;5283426;28;20028;-71
2022/05/21 12:53:32;;;;;;;6.50;0.90;;;;;;;;;;5282681;28;20036;-72
2022/05/21 12:56:12;;;;;;;4.75;0.70;;;;;;;;;;5282189;28;20471;-72
2022/05/21 12:58:43;;;;;;;5.40;0.90;;;;;;;;;;5282953;28;20031;-71
2022/05/21 13:01:24;;;;;;;6.60;1.10;;;;;;;;;;5282281;28;20329;-71
2022/05/21 13:03:55;;;;;;;5.13;1.05;;;;;;;;;;5282962;28;20028;-72
2022/05/21 13:06:31;;;;;;;9.38;1.02;;;;;;;;;;5282298;28;20036;-71
2022/05/21 13:09:04;;;;;;;6.57;1.35;;;;;;;;;;5282141;28;20021;-71
2022/05/21 13:11:40;;;;;;;8.57;0.80;;;;;;;;;;5282563;28;20068;-74
2022/05/21 13:14:16;;;;;;;4.72;0.98;;;;;;;;;;5282084;28;20040;-74
2022/05/21 13:16:54;;;;;;;6.72;1.02;;;;;;;;;;5281859;28;20028;-72
2022/05/21 13:19:37;;;;;;;6.55;0.98;;;;;;;;;;5281900;28;20169;-72
2022/05/21 13:22:14;;;;;;;5.80;1.10;;;;;;;;;;5281580;28;20056;-72
2022/05/21 13:25:05;;;;;;;8.40;1.73;;;;;;;;;;5282359;28;20478;-72
2022/05/21 13:27:44;;;;;;;14.48;2.40;;;;;;;;;;5281650;28;20463;-72
2022/05/21 13:30:18;;;;;;;21.42;3.13;;;;;;;;;;5281726;28;20021;-72
2022/05/21 13:32:53;;;;;;;8.50;1.40;;;;;;;;;;5282337;28;20135;-72
2022/05/21 13:35:31;;;;;;;5.43;1.27;;;;;;;;;;5281596;28;20021;-71
2022/05/21 13:38:03;;;;;;;8.65;1.23;;;;;;;;;;5281185;28;20020;-71
2022/05/21 13:40:42;;;;;;;6.38;1.33;;;;;;;;;;5281922;28;20024;-72
2022/05/21 13:43:13;;;;;;;;;;;;;;;;;;5281876;28;20093;-72
2022/05/21 13:45:51;;;;;;;8.57;1.48;;;;;;;;;;5281547;28;19909;-70
2022/05/21 13:48:28;;;;;;;9.50;2.22;;;;;;;;;;5281441;28;20021;-71
2022/05/21 13:51:00;;;;;;;9.35;2.78;;;;;;;;;;5281382;28;20012;-71
2022/05/21 13:53:32;;;;;;;9.45;2.50;;;;;;;;;;5281392;28;20055;-71
2022/05/21 13:56:05;;;;;;;11.73;2.03;;;;;;;;;;5281829;28;20017;-71
2022/05/21 13:58:37;;;;;;;8.95;2.10;;;;;;;;;;5281084;28;20416;-70
2022/05/21 14:01:31;;;;;;;8.88;2.22;;;;;;;;;;5281834;28;20115;-71
2022/05/21 14:04:12;;;;;;;7.10;1.45;;;;;;;;;;5278480;28;20380;-70
2022/05/21 14:06:45;;;;;;;5.45;1.42;;;;;;;;;;5280698;28;20099;-72
2022/05/21 14:09:21;;;;;;;10.02;0.95;;;;;;;;;;5281399;28;20029;-70
2022/05/21 14:11:54;;;;;;;6.75;1.15;;;;;;;;;;5281114;28;20095;-70
2022/05/21 14:14:27;;;;;;;5.78;0.60;;;;;;;;;;5281321;28;20070;-71
2022/05/21 14:17:19;;;;;;;6.43;0.90;;;;;;;;;;5281703;28;20012;-71
2022/05/21 14:20:00;;;;;;;7.63;1.15;;;;;;;;;;5281175;28;20492;-71
2022/05/21 14:22:34;;;;;;;4.68;0.80;;;;;;;;;;5281074;28;20055;-71
2022/05/21 14:25:20;;;;;;;3.30;0.65;;;;;;;;;;5280132;28;20013;-70
2022/05/21 14:27:56;;;;;;;5.55;0.60;;;;;;;;;;5280570;28;20020;-71
2022/05/21 14:30:38;;;;;;;6.57;0.80;;;;;;;;;;5280923;28;20016;-70
2022/05/21 14:33:29;;;;;;;6.93;0.90;;;;;;;;;;5280120;28;20033;-71
2022/05/21 14:36:20;;;;;;;4.82;0.60;;;;;;;;;;5280599;28;20086;-71
2022/05/21 14:38:51;;;;;;;5.57;0.68;;;;;;;;;;5281533;28;20079;-71
2022/05/21 14:41:35;;;;;;;3.80;0.80;;;;;;;;;;5279941;28;20052;-71
2022/05/21 14:44:13;;;;;;;8.00;0.60;;;;;;;;;;5280917;28;20271;-72
2022/05/21 14:49:34;;;;;;;4.60;0.80;;;;;;;;;;5281111;28;20029;-71
2022/05/21 14:54:58;;;;;;;4.95;0.70;;;;;;;;;;5280672;28;20036;-69
2022/05/21 14:57:30;;;;;;;5.63;0.65;;;;;;;;;;5280394;28;20108;-71
2022/05/21 15:00:01;;;;;;;4.72;0.93;;;;;;;;;;5280894;28;20028;-71
2022/05/21 15:02:32;;;;;;;9.80;1.20;;;;;;;;;;5280208;28;20024;-70
2022/05/21 15:05:04;;;;;;;7.70;1.00;;;;;;;;;;5280939;28;20502;-71
2022/05/21 15:07:37;;;;;;;8.50;0.80;;;;;;;;;;5280417;28;20379;-72
2022/05/21 15:10:08;;;;;;;8.80;0.85;;;;;;;;;;5280640;28;20070;-71
2022/05/21 15:12:40;;;;;;;5.55;0.85;;;;;;;;;;5280782;28;20452;-71
2022/05/21 15:15:13;;;;;;;4.80;1.02;;;;;;;;;;5275133;28;20063;-69
2022/05/21 15:17:44;;;;;;;6.82;0.80;;;;;;;;;;5280635;28;20349;-70
2022/05/21 15:20:17;;;;;;;7.15;0.85;;;;;;;;;;5280508;28;20008;-70
2022/05/21 15:22:49;;;;;;;5.15;0.70;;;;;;;;;;5279515;28;20056;-71
2022/05/21 15:25:21;;;;;;;6.65;0.80;;;;;;;;;;5280166;28;20042;-71
2022/05/21 15:27:52;;;;;;;5.22;0.70;;;;;;;;;;5280925;28;20418;-69
2022/05/21 15:30:23;;;;;;;5.53;0.70;;;;;;;;;;5279149;28;20016;-70
2022/05/21 15:32:54;;;;;;;5.18;0.60;;;;;;;;;;5280608;28;20322;-70
2022/05/21 15:35:26;;;;;;;7.25;0.90;;;;;;;;;;5279955;28;20426;-71
2022/05/21 15:37:57;;;;;;;6.57;1.10;;;;;;;;;;5283400;28;20017;-71
2022/05/21 15:40:34;;;;;;;3.80;0.60;;;;;;;;;;5283843;28;20093;-71
2022/05/21 15:43:06;;;;;;;4.95;0.80;;;;;;;;;;5283449;28;20643;-69
2022/05/21 15:45:38;;;;;;;10.60;0.68;;;;;;;;;;5283965;28;20021;-72
2022/05/21 15:48:09;;;;;;;6.45;0.80;;;;;;;;;;5284138;28;20452;-70
2022/05/21 15:50:41;;;;;;;7.57;0.83;;;;;;;;;;5283065;28;20455;-70
2022/05/21 15:53:12;;;;;;;6.72;0.70;;;;;;;;;;5283772;28;20374;-69
2022/05/21 15:55:45;;;;;;;6.03;0.90;;;;;;;;;;5283919;28;20021;-70
2022/05/21 15:58:16;;;;;;;4.95;1.15;;;;;;;;;;5283048;28;20115;-70
2022/05/21 16:00:50;;;;;;;8.77;1.25;;;;;;;;;;5283865;28;20107;-70
2022/05/21 16:03:22;;;;;;;4.85;0.80;;;;;;;;;;5283137;28;20036;-69